Nearby METAR Reports

 

KSJC - San Jose, California, USA
Distance from station: NØ 14km
Oppdatert: 01/04/2020 17:06
Delvis skyet
Delvis skyet
 Vind fra VNV
Vind: VNV 13 km/h
Temperatur: 10°C
Wind Chill: 8°C
Duggpunkt: 5°C
Fuktighet: 71%
Barometer: 1016.9 hPa
Clouds: Delvis skyet
Visibility: 16 km
Cloud details: Few Clouds 549 m
Delvis skyet 792 m
Delvis skyet 2438 m
2020/04/01 15:06 KSJC 011506Z 30007KT 10SM FEW018 SCT026 SCT080 10/05 A3003 RMK AO2 T01000050
KNUQ - Moffett Nas/Mtn, California, USA
Distance from station: N 14km
Oppdatert: 21/11/2019 17:56
NOT Current

 
Barometer: 1011.2 hPa
2019/11/21 16:56 KNUQ 211656Z AUTO A2986 RMK AO2 SLP116 PWINO $
 
KPAO - Palo Alto, California, USA
Distance from station: NNV 23km
Oppdatert: 01/04/2020 16:47
Few Clouds
Few Clouds
 Vind fra V
Vind: V 11 km/h
Temperatur: 9°C
Wind Chill: 7°C
Duggpunkt: 6°C
Fuktighet: 82%
Barometer: 1016.9 hPa
Clouds: Few Clouds
Visibility: 16 km
Cloud details: Few Clouds 762 m
2020/04/01 14:47 KPAO 011447Z 27006KT 10SM FEW025 09/06 A3003
KRHV - San Jose/Reid, California, USA
Distance from station: ØNØ 19km
Oppdatert: 01/04/2020 16:50
Hovedsaklig skyet
Hovedsaklig skyet
 Vind fra NV
Vind: NV 9 km/h
Temperatur: 10°C
Wind Chill: 9°C
Duggpunkt: 6°C
Fuktighet: 76%
Barometer: 1016.9 hPa
Clouds: Hovedsaklig skyet
Visibility: 16 km
Cloud details: Hovedsaklig skyet 762 m
2020/04/01 14:50 KRHV 011450Z 31005KT 10SM BKN025 10/06 A3003
 
KOAK - Oakland, California, USA
Distance from station: NNV 50km
Oppdatert: 01/04/2020 16:53
Few Clouds
Few Clouds
 Vind fra ØNØ
Vind: ØNØ 7 km/h
Temperatur: 11°C
Duggpunkt: 6°C
Fuktighet: 72%
Barometer: 1016.9 hPa
Clouds: Few Clouds
Visibility: 16 km
Cloud details: Few Clouds 305 m
2020/04/01 14:53 KOAK 011453Z 06004KT 10SM FEW010 11/06 A3003 RMK AO2 SLP168 T01110061 53005
KSQL - San Carlos Airpo, California, USA
Distance from station: NV 34km
Oppdatert: 01/04/2020 16:47
Few Clouds
Few Clouds
 Vind fra V
Vind: V 19 km/h
Temperatur: 10°C
Wind Chill: 7°C
Duggpunkt: 4°C
Fuktighet: 67%
Barometer: 1016.9 hPa
Clouds: Few Clouds
Visibility: 16 km
Cloud details: Few Clouds 762 m
2020/04/01 14:47 KSQL 011447Z 28010KT 10SM FEW025 10/04 A3003
 
KSFO - San Francisco, California, USA
Distance from station: NV 49km
Oppdatert: 01/04/2020 16:56
Few Clouds
Few Clouds
 Vind fra VNV
Vind: VNV 28 km/h
Temperatur: 10°C
Wind Chill: 7°C
Duggpunkt: 4°C
Fuktighet: 67%
Barometer: 1016.6 hPa
Clouds: Few Clouds
Visibility: 16 km
Cloud details: Few Clouds 762 m
2020/04/01 14:56 KSFO 011456Z 29015KT 10SM FEW025 10/04 A3002 RMK AO2 SLP165 T01000039 53004
KE16 - San Martin, California, USA
Distance from station: ØSØ 43km
Oppdatert: 14/11/2019 10:35
NOT Current
Overskyet
Overskyet
 Vind fra SØ
Vind: SØ 11 km/h
Temperatur: 12°C
Duggpunkt: 10°C
Fuktighet: 88%
Barometer: 1017.6 hPa
Clouds: Overskyet
Visibility: 16 km
Cloud details: Overskyet 427 m
2019/11/14 09:35 KE16 140935Z AUTO 13006KT 10SM OVC014 12/10 A3005 RMK AO2
 
KWVI - Watsonville, California, USA
Distance from station: SSØ 44km
Oppdatert: 01/04/2020 17:08
Hovedsaklig skyet
Hovedsaklig skyet
 Vind fra calm
Vind: Stille
Temperatur: 12°C
Duggpunkt: 9°C
Fuktighet: 82%
Barometer: 1016.3 hPa
Clouds: Hovedsaklig skyet
Visibility: 16 km
Cloud details: Few Clouds 366 m
Hovedsaklig skyet 701 m
2020/04/01 15:08 KWVI 011508Z AUTO 00000KT 10SM FEW012 BKN023 12/09 A3001 RMK AO2 T01220094
KHAF - Half Moon Bay, California, USA
Distance from station: VNV 50km
Oppdatert: 01/04/2020 17:15
Few Clouds
Few Clouds
 Vind fra NNV
Vind: NNV 26 km/h, Vindkast: 37 km/h
Temperatur: 10°C
Wind Chill: 7°C
Duggpunkt: 4°C
Fuktighet: 67%
Barometer: 1017.3 hPa
Clouds: Few Clouds
Visibility: 14 km
Cloud details: Few Clouds 792 m
2020/04/01 15:15 KHAF 011515Z AUTO 34014G20KT 9SM FEW026 10/04 A3004 RMK AO2
 
KHWD - Hayward, California, USA
Distance from station: N 44km
Oppdatert: 01/04/2020 16:54
Klart
Klart
 Vind fra calm
Vind: Stille
Temperatur: 9°C
Duggpunkt: 5°C
Fuktighet: 76%
Barometer: 1016.6 hPa
Clouds: Klart
Visibility: 16 km
2020/04/01 14:54 KHWD 011454Z 00000KT 10SM CLR 09/05 A3002 RMK AO2 SLP174 T00940050 53004
KLVK - Livermore, California, USA
Distance from station: NNØ 51km
Oppdatert: 01/04/2020 16:53
Klart
Klart
 Vind fra VSV
Vind: VSV 15 km/h
Temperatur: 9°C
Wind Chill: 7°C
Duggpunkt: 4°C
Fuktighet: 71%
Barometer: 1016.3 hPa
Clouds: Klart
Visibility: 16 km
2020/04/01 14:53 KLVK 011453Z 25008KT 10SM CLR 09/04 A3001 RMK AO2 SLP160 T00890044 53006